createdAt,value
2022-11-15T00:01:46.359Z,-23450.72
2022-11-15T00:03:53.029Z,-23449.13
2022-11-15T00:05:55.828Z,-23450.56
2022-11-15T00:08:00.210Z,-23446.28
2022-11-15T00:10:02.883Z,-23447.53
2022-11-15T00:12:06.045Z,-23447.38
2022-11-15T00:14:08.819Z,-23447.88
2022-11-15T00:16:12.378Z,-23447.53
2022-11-15T00:18:17.200Z,-23450.72
2022-11-15T00:20:19.827Z,-23450.09
2022-11-15T00:22:22.523Z,-23449.44
2022-11-15T00:24:26.581Z,-23446.59
2022-11-15T00:26:29.174Z,-23445.00
2022-11-15T00:28:32.090Z,-23444.06
2022-11-15T00:30:35.630Z,-23444.84
2022-11-15T00:32:38.226Z,-23446.59
2022-11-15T00:34:40.862Z,-23446.75
2022-11-15T00:36:43.435Z,-23446.13
2022-11-15T00:38:46.016Z,-23444.53
2022-11-15T00:40:49.962Z,-23446.28
2022-11-15T00:42:52.592Z,-23445.66
2022-11-15T00:44:55.240Z,-23443.59
2022-11-15T00:46:57.846Z,-23442.31
2022-11-15T00:49:00.675Z,-23444.84
2022-11-15T00:51:03.600Z,-23446.91
2022-11-15T00:53:06.191Z,-23445.66
2022-11-15T00:55:10.145Z,-23442.94
2022-11-15T00:57:14.066Z,-23445.47
2022-11-15T00:59:16.702Z,-23446.28
2022-11-15T01:01:19.340Z,-23447.72
2022-11-15T01:03:22.043Z,-23445.81
2022-11-15T01:05:24.703Z,-23442.78
2022-11-15T01:07:27.378Z,-23440.88
2022-11-15T01:09:30.029Z,-23438.34
2022-11-15T01:11:32.700Z,-23437.41
2022-11-15T01:13:38.225Z,-23437.22
2022-11-15T01:15:42.238Z,-23437.22
2022-11-15T01:17:44.849Z,-23443.75
2022-11-15T01:19:47.528Z,-23444.38
2022-11-15T01:21:50.962Z,-23445.66
2022-11-15T01:23:55.044Z,-23443.91
2022-11-15T01:26:01.030Z,-23438.34
2022-11-15T01:28:03.632Z,-23437.53
2022-11-15T01:30:09.298Z,-23441.03
2022-11-15T01:32:11.950Z,-23435.47
2022-11-15T01:34:16.044Z,-23430.72
2022-11-15T01:36:23.052Z,-23426.59
2022-11-15T01:38:25.783Z,-23424.22
2022-11-15T01:40:28.365Z,-23425.63
2022-11-15T01:42:30.979Z,-23419.28
2022-11-15T01:44:42.309Z,-23421.19
2022-11-15T01:46:48.477Z,-23418.50
2022-11-15T01:48:53.499Z,-23419.28
2022-11-15T01:50:56.269Z,-23415.16
2022-11-15T01:52:58.957Z,-23414.53
2022-11-15T01:55:07.419Z,-23413.72
2022-11-15T01:57:12.518Z,-23409.13
2022-11-15T01:59:15.760Z,-23410.41
2022-11-15T02:01:18.377Z,-23411.03
2022-11-15T02:03:25.587Z,-23406.28
2022-11-15T02:05:28.270Z,-23410.41
2022-11-15T02:07:32.855Z,-23410.41
2022-11-15T02:09:37.430Z,-23410.88
2022-11-15T02:11:40.174Z,-23410.41
2022-11-15T02:13:43.359Z,-23409.91
2022-11-15T02:16:02.655Z,-23405.78
2022-11-15T02:18:17.590Z,-23408.50
2022-11-15T02:20:38.253Z,-23400.88
2022-11-15T02:22:52.929Z,-23403.25
2022-11-15T02:25:12.094Z,-23405.63
2022-11-15T02:27:40.013Z,-23408.50
2022-11-15T02:30:05.826Z,-23406.09
2022-11-15T02:32:16.167Z,-23405.31
2022-11-15T02:34:28.342Z,-23405.63
2022-11-15T02:36:41.411Z,-23405.63
2022-11-15T02:38:51.244Z,-23403.72
2022-11-15T02:40:58.842Z,-23410.88
2022-11-15T02:43:25.881Z,-23411.97
2022-11-15T02:45:32.648Z,-23418.97
2022-11-15T02:47:39.938Z,-23414.22
2022-11-15T02:49:47.079Z,-23420.88
2022-11-15T02:51:52.869Z,-23418.97
2022-11-15T02:53:55.501Z,-23417.38
2022-11-15T02:55:58.982Z,-23427.22
2022-11-15T02:58:18.280Z,-23426.59
2022-11-15T03:00:22.193Z,-23432.94
2022-11-15T03:02:42.872Z,-23433.41
2022-11-15T03:04:52.597Z,-23432.63
2022-11-15T03:07:09.723Z,-23426.59
2022-11-15T03:09:20.311Z,-23427.53
2022-11-15T03:11:25.187Z,-23423.41
2022-11-15T03:13:30.161Z,-23425.31
2022-11-15T03:15:38.936Z,-23423.09
2022-11-15T03:17:49.750Z,-23420.25
2022-11-15T03:19:56.124Z,-23418.81
2022-11-15T03:22:02.096Z,-23417.06
2022-11-15T03:24:07.719Z,-23412.31
2022-11-15T03:26:13.993Z,-23410.72
2022-11-15T03:28:21.791Z,-23410.06
2022-11-15T03:30:24.402Z,-23407.84
2022-11-15T03:32:30.952Z,-23407.53
2022-11-15T03:34:39.995Z,-23404.69
2022-11-15T03:36:43.140Z,-23406.91
2022-11-15T03:38:47.182Z,-23406.91
2022-11-15T03:40:56.270Z,-23407.84
2022-11-15T03:43:04.310Z,-23408.50
2022-11-15T03:45:15.341Z,-23414.38
2022-11-15T03:47:22.979Z,-23413.88
2022-11-15T03:49:29.955Z,-23410.88
2022-11-15T03:51:34.159Z,-23405.94
2022-11-15T03:53:36.770Z,-23406.75
2022-11-15T03:55:39.379Z,-23401.81
2022-11-15T03:57:42.054Z,-23404.34
2022-11-15T03:59:44.725Z,-23404.69
2022-11-15T04:01:47.616Z,-23406.91
2022-11-15T04:03:50.287Z,-23406.59
2022-11-15T04:05:52.895Z,-23408.16
2022-11-15T04:07:56.949Z,-23407.22
2022-11-15T04:10:06.434Z,-23403.09
2022-11-15T04:12:09.091Z,-23402.44
2022-11-15T04:14:11.730Z,-23400.53
2022-11-15T04:16:14.379Z,-23401.50
2022-11-15T04:18:16.957Z,-23396.25
2022-11-15T04:20:39.255Z,-23400.06
2022-11-15T04:22:59.691Z,-23398.47
2022-11-15T04:25:03.751Z,-23396.25
2022-11-15T04:27:06.389Z,-23398.16
2022-11-15T04:29:26.632Z,-23403.41
2022-11-15T04:31:29.711Z,-23401.19
2022-11-15T04:33:32.651Z,-23405.63
2022-11-15T04:35:35.694Z,-23402.28
2022-11-15T04:37:37.321Z,-23402.13
2022-11-15T04:39:40.035Z,-23401.81
2022-11-15T04:41:44.026Z,-23398.97
2022-11-15T04:43:46.606Z,-23394.81
2022-11-15T04:45:53.789Z,-23389.25
2022-11-15T04:47:56.416Z,-23392.44
2022-11-15T04:49:59.052Z,-23389.75
2022-11-15T04:52:01.698Z,-23391.66
2022-11-15T04:54:04.534Z,-23391.97
2022-11-15T04:56:07.529Z,-23392.75
2022-11-15T04:58:12.198Z,-23398.00
2022-11-15T05:00:17.411Z,-23396.09
2022-11-15T05:02:20.011Z,-23395.00
2022-11-15T05:04:21.644Z,-23395.16
2022-11-15T05:06:24.260Z,-23392.91
2022-11-15T05:08:26.923Z,-23395.47
2022-11-15T05:10:29.572Z,-23394.66
2022-11-15T05:12:32.610Z,-23395.47
2022-11-15T05:14:36.559Z,-23393.88
2022-11-15T05:16:39.611Z,-23393.56
2022-11-15T05:18:42.302Z,-23396.09
2022-11-15T05:20:44.928Z,-23399.28
2022-11-15T05:22:47.500Z,-23397.38
2022-11-15T05:24:50.279Z,-23399.44
2022-11-15T05:26:52.892Z,-23400.72
2022-11-15T05:28:56.446Z,-23400.88
2022-11-15T05:31:03.603Z,-23409.28
2022-11-15T05:33:06.614Z,-23411.97
2022-11-15T05:35:14.062Z,-23406.59
2022-11-15T05:37:17.724Z,-23411.97
2022-11-15T05:39:20.316Z,-23415.31
2022-11-15T05:41:36.168Z,-23416.59
2022-11-15T05:43:41.046Z,-23410.72
2022-11-15T05:45:43.667Z,-23400.88
2022-11-15T05:47:49.673Z,-23399.91
2022-11-15T05:49:54.720Z,-23397.53
2022-11-15T05:51:58.650Z,-23397.06
2022-11-15T05:54:03.011Z,-23396.72
2022-11-15T05:56:07.547Z,-23391.81
2022-11-15T05:58:10.315Z,-23391.66
2022-11-15T06:00:14.224Z,-23392.59
2022-11-15T06:02:16.931Z,-23391.34
2022-11-15T06:04:20.919Z,-23392.59
2022-11-15T06:06:23.680Z,-23391.16
2022-11-15T06:08:26.287Z,-23389.09
2022-11-15T06:10:28.908Z,-23395.16
2022-11-15T06:12:31.550Z,-23393.22
2022-11-15T06:14:34.183Z,-23389.75
2022-11-15T06:16:36.863Z,-23390.53
2022-11-15T06:18:39.692Z,-23386.88
2022-11-15T06:20:43.758Z,-23387.34
2022-11-15T06:22:46.349Z,-23389.44
2022-11-15T06:24:49.012Z,-23388.78
2022-11-15T06:26:51.636Z,-23390.22
2022-11-15T06:28:54.341Z,-23387.53
2022-11-15T06:30:57.031Z,-23387.84
2022-11-15T06:33:03.735Z,-23393.88
2022-11-15T06:35:06.847Z,-23389.75
2022-11-15T06:37:10.768Z,-23393.56
2022-11-15T06:39:13.571Z,-23392.13
2022-11-15T06:41:17.776Z,-23387.53
2022-11-15T06:43:20.411Z,-23388.00
2022-11-15T06:45:22.990Z,-23394.19
2022-11-15T06:47:25.590Z,-23392.13
2022-11-15T06:49:28.247Z,-23391.34
2022-11-15T06:51:30.874Z,-23396.09
2022-11-15T06:53:35.204Z,-23399.44
2022-11-15T06:55:38.017Z,-23400.53
2022-11-15T06:57:48.704Z,-23391.97
2022-11-15T06:59:51.323Z,-23395.47
2022-11-15T07:01:53.963Z,-23392.28
2022-11-15T07:03:56.620Z,-23396.41
2022-11-15T07:06:05.722Z,-23394.81
2022-11-15T07:08:10.533Z,-23396.25
2022-11-15T07:10:14.482Z,-23396.09
2022-11-15T07:12:17.074Z,-23400.38
2022-11-15T07:14:19.666Z,-23398.97
2022-11-15T07:16:22.352Z,-23402.13
2022-11-15T07:18:24.981Z,-23402.78
2022-11-15T07:20:27.634Z,-23407.53
2022-11-15T07:22:30.267Z,-23407.84
2022-11-15T07:24:32.891Z,-23409.75
2022-11-15T07:26:36.866Z,-23410.72
2022-11-15T07:28:39.489Z,-23412.47
2022-11-15T07:30:45.214Z,-23414.22
2022-11-15T07:32:48.509Z,-23418.97
2022-11-15T07:34:51.194Z,-23420.25
2022-11-15T07:36:53.861Z,-23422.78
2022-11-15T07:38:56.769Z,-23430.56
2022-11-15T07:41:00.641Z,-23434.69
2022-11-15T07:43:06.963Z,-23442.16
2022-11-15T07:45:10.419Z,-23449.78
2022-11-15T07:47:13.019Z,-23460.41
2022-11-15T07:49:15.667Z,-23468.81
2022-11-15T07:51:18.721Z,-23481.00
2022-11-15T07:53:21.330Z,-23469.44
2022-11-15T07:55:24.352Z,-23474.50
2022-11-15T07:57:27.154Z,-23473.88
2022-11-15T07:59:31.167Z,-23486.72
2022-11-15T08:01:33.915Z,-23493.53
2022-11-15T08:03:37.349Z,-23490.38
2022-11-15T08:05:41.296Z,-23500.50
2022-11-15T08:07:43.960Z,-23495.44
2022-11-15T08:09:46.603Z,-23482.75
2022-11-15T08:11:49.292Z,-23479.91
2022-11-15T08:13:52.499Z,-23476.88
2022-11-15T08:16:01.413Z,-23492.25
2022-11-15T08:18:05.968Z,-23500.19
2022-11-15T08:20:09.842Z,-23495.91
2022-11-15T08:22:12.456Z,-23497.34
2022-11-15T08:24:15.339Z,-23492.44
2022-11-15T08:26:18.010Z,-23489.09
2022-11-15T08:28:20.655Z,-23491.00
2022-11-15T08:30:23.948Z,-23493.06
2022-11-15T08:32:27.944Z,-23496.53
2022-11-15T08:34:30.657Z,-23529.81
2022-11-15T08:36:43.071Z,-23528.69
2022-11-15T08:38:48.468Z,-23531.22
2022-11-15T08:40:53.114Z,-23546.09
2022-11-15T08:42:55.864Z,-23533.59
2022-11-15T08:44:58.686Z,-23536.13
2022-11-15T08:47:01.345Z,-23548.97
2022-11-15T08:49:05.430Z,-23536.44
2022-11-15T08:51:08.095Z,-23523.63
2022-11-15T08:53:10.837Z,-23532.50
2022-11-15T08:55:13.555Z,-23556.38
2022-11-15T08:57:16.886Z,-23560.03
2022-11-15T08:59:19.576Z,-23557.19
2022-11-15T09:01:22.825Z,-23591.97
2022-11-15T09:03:25.501Z,-23596.53
2022-11-15T09:05:29.496Z,-23628.91
2022-11-15T09:07:32.770Z,-23639.66
2022-11-15T09:09:35.483Z,-23666.31
2022-11-15T09:11:38.454Z,-23677.03
2022-11-15T09:13:41.133Z,-23662.53
2022-11-15T09:15:44.104Z,-23615.50
2022-11-15T09:17:46.731Z,-23613.59
2022-11-15T09:19:49.367Z,-23563.81
2022-11-15T09:21:53.456Z,-23551.47
2022-11-15T09:23:56.152Z,-23554.66
2022-11-15T09:26:03.687Z,-23559.41
2022-11-15T09:28:08.451Z,-23584.06
2022-11-15T09:30:12.096Z,-23558.75
2022-11-15T09:32:14.760Z,-23556.22
2022-11-15T09:34:17.597Z,-23570.00
2022-11-15T09:36:20.275Z,-23611.53
2022-11-15T09:38:24.260Z,-23635.53
2022-11-15T09:40:27.263Z,-23632.69
2022-11-15T09:42:50.056Z,-23592.28
2022-11-15T09:45:05.751Z,-23581.69
2022-11-15T09:47:24.349Z,-23579.00
2022-11-15T09:49:27.294Z,-23592.28
2022-11-15T09:51:34.199Z,-23582.63
2022-11-15T09:56:17.663Z,-23578.06
2022-11-15T09:58:29.268Z,-23569.34
2022-11-15T10:00:52.891Z,-23569.19
2022-11-15T10:03:09.981Z,-23566.03
2022-11-15T10:05:16.593Z,-23567.63
2022-11-15T10:07:21.060Z,-23571.88
2022-11-15T10:09:30.721Z,-23569.19
2022-11-15T10:11:38.969Z,-23574.72
2022-11-15T10:13:45.291Z,-23578.06
2022-11-15T10:15:49.706Z,-23575.84
2022-11-15T10:18:10.743Z,-23578.38
2022-11-15T10:20:21.613Z,-23580.91
2022-11-15T10:22:29.025Z,-23579.78
2022-11-15T10:24:39.640Z,-23579.63
2022-11-15T10:26:48.827Z,-23575.38
2022-11-15T10:28:51.450Z,-23571.88
2022-11-15T10:30:56.011Z,-23576.16
2022-11-15T10:32:58.669Z,-23580.28
2022-11-15T10:35:01.289Z,-23598.91
2022-11-15T10:37:04.032Z,-23592.59
2022-11-15T10:39:06.957Z,-23585.47
2022-11-15T10:41:13.617Z,-23581.53
2022-11-15T10:43:19.731Z,-23590.06
2022-11-15T10:45:27.913Z,-23578.38
2022-11-15T10:47:38.857Z,-23578.69
2022-11-15T10:49:55.834Z,-23594.50
2022-11-15T10:52:02.693Z,-23597.50
2022-11-15T10:54:13.017Z,-23602.69
2022-11-15T10:56:24.247Z,-23584.84
2022-11-15T10:58:35.350Z,-23582.16
2022-11-15T11:00:40.566Z,-23580.09
2022-11-15T11:03:00.624Z,-23589.75
2022-11-15T11:05:05.100Z,-23582.97
2022-11-15T11:07:22.896Z,-23571.72
2022-11-15T11:09:33.637Z,-23560.97
2022-11-15T11:11:49.169Z,-23559.41
2022-11-15T11:13:51.942Z,-23561.78
2022-11-15T11:16:02.111Z,-23560.03
2022-11-15T11:18:10.788Z,-23549.91
2022-11-15T11:20:22.692Z,-23551.66
2022-11-15T11:22:33.140Z,-23556.53
2022-11-15T11:24:40.982Z,-23557.50
2022-11-15T11:27:09.474Z,-23564.28
2022-11-15T11:29:28.270Z,-23565.09
2022-11-15T11:31:37.610Z,-23564.13
2022-11-15T11:33:46.729Z,-23564.47
2022-11-15T11:35:57.171Z,-23570.47
2022-11-15T11:38:17.092Z,-23575.38
2022-11-15T11:40:30.922Z,-23571.41
2022-11-15T11:42:43.630Z,-23569.19
2022-11-15T11:44:57.163Z,-23576.00
2022-11-15T11:47:02.579Z,-23573.47
2022-11-15T11:49:10.644Z,-23589.91
2022-11-15T11:51:20.549Z,-23595.44
2022-11-15T11:53:29.761Z,-23598.28
2022-11-15T11:55:38.875Z,-23597.97
2022-11-15T11:57:48.697Z,-23595.13
2022-11-15T11:59:57.778Z,-23591.00
2022-11-15T12:02:10.674Z,-23597.97
2022-11-15T12:04:18.182Z,-23603.19
2022-11-15T12:06:30.184Z,-23602.69
2022-11-15T12:08:43.264Z,-23606.03
2022-11-15T12:10:50.860Z,-23596.06
2022-11-15T12:13:03.284Z,-23600.50
2022-11-15T12:15:16.111Z,-23607.75
2022-11-15T12:17:27.367Z,-23592.91
2022-11-15T12:19:31.218Z,-23591.34
2022-11-15T12:21:41.531Z,-23587.53
2022-11-15T12:23:50.227Z,-23584.69
2022-11-15T12:25:57.834Z,-23585.66
2022-11-15T12:28:08.987Z,-23594.03
2022-11-15T12:30:15.166Z,-23581.22
2022-11-15T12:32:28.153Z,-23581.84
2022-11-15T12:34:40.191Z,-23586.28
2022-11-15T12:36:46.079Z,-23579.31
2022-11-15T12:38:59.618Z,-23574.72
2022-11-15T12:41:16.551Z,-23577.91
2022-11-15T12:43:43.219Z,-23577.41
2022-11-15T12:45:47.997Z,-23577.25
2022-11-15T12:47:50.622Z,-23575.84
2022-11-15T12:49:53.742Z,-23576.16
2022-11-15T12:52:08.203Z,-23581.22
2022-11-15T12:54:48.423Z,-23588.50
2022-11-15T12:57:28.060Z,-23579.63
2022-11-15T12:59:52.878Z,-23585.47
2022-11-15T13:02:02.165Z,-23578.22
2022-11-15T13:04:16.779Z,-23573.78
2022-11-15T13:06:40.092Z,-23576.78
2022-11-15T13:08:48.399Z,-23568.56
2022-11-15T13:10:51.780Z,-23569.50
2022-11-15T13:12:57.713Z,-23574.56
2022-11-15T13:15:00.943Z,-23573.16
2022-11-15T13:17:14.621Z,-23577.09
2022-11-15T13:19:17.260Z,-23577.25
2022-11-15T13:21:42.749Z,-23566.97
2022-11-15T13:23:47.366Z,-23573.63
2022-11-15T13:26:17.417Z,-23572.34
2022-11-15T13:28:26.248Z,-23584.38
2022-11-15T13:30:31.445Z,-23582.78
2022-11-15T13:32:35.486Z,-23578.84
2022-11-15T13:34:54.715Z,-23580.59
2022-11-15T13:36:58.124Z,-23574.56
2022-11-15T13:39:03.584Z,-23575.84
2022-11-15T13:41:19.456Z,-23570.16
2022-11-15T13:43:30.663Z,-23572.19
2022-11-15T13:45:33.391Z,-23572.34
2022-11-15T13:47:37.338Z,-23572.03
2022-11-15T13:49:40.128Z,-23573.00
2022-11-15T13:51:46.439Z,-23572.84
2022-11-15T13:53:53.465Z,-23565.25
2022-11-15T13:55:58.152Z,-23565.72
2022-11-15T13:58:06.775Z,-23567.63
2022-11-15T14:00:28.654Z,-23565.72
2022-11-15T14:02:34.247Z,-23566.97
2022-11-15T14:04:40.486Z,-23562.56
2022-11-15T14:06:48.876Z,-23560.03
2022-11-15T14:09:05.892Z,-23559.41
2022-11-15T14:11:11.700Z,-23550.06
2022-11-15T14:13:29.826Z,-23551.66
2022-11-15T14:15:34.862Z,-23549.91
2022-11-15T14:17:45.754Z,-23548.63
2022-11-15T14:19:52.068Z,-23546.75
2022-11-15T14:22:12.169Z,-23550.53
2022-11-15T14:24:18.601Z,-23546.44
2022-11-15T14:26:32.101Z,-23544.53
2022-11-15T14:28:39.035Z,-23547.06
2022-11-15T14:30:42.498Z,-23545.47
2022-11-15T14:32:48.262Z,-23552.91
2022-11-15T14:34:56.864Z,-23543.88
2022-11-15T14:36:59.567Z,-23538.50
2022-11-15T14:39:02.915Z,-23539.16
2022-11-15T14:41:06.656Z,-23549.75
2022-11-15T14:43:10.606Z,-23546.09
2022-11-15T14:45:15.714Z,-23542.94
2022-11-15T14:47:18.796Z,-23548.31
2022-11-15T14:49:21.400Z,-23541.69
2022-11-15T14:51:25.515Z,-23544.69
2022-11-15T14:53:28.126Z,-23548.31
2022-11-15T14:55:35.201Z,-23545.31
2022-11-15T14:57:37.866Z,-23547.69
2022-11-15T14:59:40.489Z,-23539.94
2022-11-15T15:01:43.276Z,-23539.94
2022-11-15T15:03:46.352Z,-23541.53
2022-11-15T15:05:49.080Z,-23547.22
2022-11-15T15:07:54.042Z,-23542.78
2022-11-15T15:10:17.744Z,-23538.34
2022-11-15T15:12:21.805Z,-23539.16
2022-11-15T15:14:24.403Z,-23532.97
2022-11-15T15:16:27.063Z,-23528.38
2022-11-15T15:18:29.943Z,-23532.50
2022-11-15T15:20:33.638Z,-23530.75
2022-11-15T15:22:36.417Z,-23530.28
2022-11-15T15:24:40.390Z,-23533.28
2022-11-15T15:26:44.378Z,-23533.44
2022-11-15T15:28:47.109Z,-23538.03
2022-11-15T15:30:50.393Z,-23533.13
2022-11-15T15:32:54.790Z,-23527.75
2022-11-15T15:34:57.536Z,-23529.66
2022-11-15T15:37:11.142Z,-23528.06
2022-11-15T15:39:13.752Z,-23527.91
2022-11-15T15:41:18.662Z,-23529.97
2022-11-15T15:43:21.368Z,-23528.84
2022-11-15T15:45:24.164Z,-23528.69
2022-11-15T15:47:27.699Z,-23523.00
2022-11-15T15:49:30.333Z,-23527.13
2022-11-15T15:51:32.962Z,-23528.38
2022-11-15T15:53:35.648Z,-23528.22
2022-11-15T15:55:38.760Z,-23525.53
2022-11-15T15:57:42.759Z,-23527.13
2022-11-15T15:59:45.372Z,-23527.13
2022-11-15T16:01:48.055Z,-23526.00
2022-11-15T16:03:50.741Z,-23527.75
2022-11-15T16:05:53.386Z,-23527.13
2022-11-15T16:07:56.046Z,-23531.22
2022-11-15T16:10:01.804Z,-23531.38
2022-11-15T16:12:04.703Z,-23526.47
2022-11-15T16:14:09.355Z,-23523.47
2022-11-15T16:16:15.043Z,-23524.09
2022-11-15T16:18:18.968Z,-23524.56
2022-11-15T16:20:37.113Z,-23529.16
2022-11-15T16:22:39.778Z,-23527.13
2022-11-15T16:24:42.450Z,-23532.19
2022-11-15T16:26:45.247Z,-23532.50
2022-11-15T16:28:47.882Z,-23532.81
2022-11-15T16:31:01.221Z,-23532.19
2022-11-15T16:33:03.839Z,-23531.06
2022-11-15T16:35:07.044Z,-23532.50
2022-11-15T16:37:22.326Z,-23531.38
2022-11-15T16:39:24.965Z,-23530.75
2022-11-15T16:41:27.995Z,-23531.69
2022-11-15T16:43:30.648Z,-23530.59
2022-11-15T16:45:36.117Z,-23534.56
2022-11-15T16:47:40.127Z,-23533.44
2022-11-15T16:49:45.138Z,-23530.75
2022-11-15T16:51:48.820Z,-23532.03
2022-11-15T16:53:51.582Z,-23533.91
2022-11-15T16:55:55.590Z,-23537.41
2022-11-15T16:57:58.976Z,-23533.13
2022-11-15T17:00:01.645Z,-23537.09
2022-11-15T17:02:04.331Z,-23533.13
2022-11-15T17:04:12.706Z,-23534.06
2022-11-15T17:06:18.275Z,-23536.59
2022-11-15T17:08:21.985Z,-23533.13
2022-11-15T17:10:27.324Z,-23535.81
2022-11-15T17:12:30.917Z,-23535.03
2022-11-15T17:14:33.515Z,-23535.66
2022-11-15T17:16:38.122Z,-23533.44
2022-11-15T17:18:42.256Z,-23532.81
2022-11-15T17:20:46.255Z,-23535.19
2022-11-15T17:22:48.927Z,-23536.28
2022-11-15T17:24:51.605Z,-23530.44
2022-11-15T17:26:54.215Z,-23531.69
2022-11-15T17:28:57.422Z,-23531.22
2022-11-15T17:31:00.400Z,-23534.38
2022-11-15T17:33:03.023Z,-23531.84
2022-11-15T17:35:12.064Z,-23526.78
2022-11-15T17:37:17.897Z,-23530.13
2022-11-15T17:39:20.849Z,-23530.28
2022-11-15T17:41:23.448Z,-23527.44
2022-11-15T17:43:26.116Z,-23530.91
2022-11-15T17:45:28.770Z,-23529.97
2022-11-15T17:47:31.397Z,-23527.13
2022-11-15T17:49:34.983Z,-23529.81
2022-11-15T17:51:37.706Z,-23520.63
2022-11-15T17:53:43.952Z,-23524.09
2022-11-15T17:55:46.553Z,-23526.78
2022-11-15T17:57:49.166Z,-23523.31
2022-11-15T17:59:51.817Z,-23523.47
2022-11-15T18:01:54.779Z,-23524.91
2022-11-15T18:04:00.381Z,-23521.25
2022-11-15T18:06:03.103Z,-23515.25
2022-11-15T18:08:08.319Z,-23514.59
2022-11-15T18:10:15.410Z,-23515.41
2022-11-15T18:12:18.495Z,-23513.19
2022-11-15T18:14:21.393Z,-23514.44
2022-11-15T18:16:26.121Z,-23514.28
2022-11-15T18:18:28.820Z,-23516.34
2022-11-15T18:20:31.421Z,-23515.41
2022-11-15T18:22:34.581Z,-23516.50
2022-11-15T18:24:39.263Z,-23516.34
2022-11-15T18:26:43.322Z,-23514.91
2022-11-15T18:28:48.302Z,-23516.03
2022-11-15T18:30:50.953Z,-23516.66
2022-11-15T18:32:55.078Z,-23517.63
2022-11-15T18:34:57.678Z,-23514.75
2022-11-15T18:37:00.856Z,-23516.97
2022-11-15T18:39:05.462Z,-23515.72
2022-11-15T18:41:09.989Z,-23516.34
2022-11-15T18:43:13.966Z,-23516.03
2022-11-15T18:45:21.470Z,-23516.97
2022-11-15T18:47:26.493Z,-23516.19
2022-11-15T18:49:29.306Z,-23515.41
2022-11-15T18:51:32.830Z,-23514.75
2022-11-15T18:53:36.506Z,-23515.56
2022-11-15T18:55:39.311Z,-23513.97
2022-11-15T18:57:41.956Z,-23514.13
2022-11-15T18:59:45.975Z,-23513.34
2022-11-15T19:01:48.721Z,-23511.44
2022-11-15T19:03:53.771Z,-23509.53
2022-11-15T19:06:02.569Z,-23508.75
2022-11-15T19:08:05.585Z,-23514.59
2022-11-15T19:10:10.941Z,-23517.63
2022-11-15T19:12:13.892Z,-23515.88
2022-11-15T19:14:18.242Z,-23514.75
2022-11-15T19:16:22.314Z,-23516.97
2022-11-15T19:18:24.908Z,-23515.56
2022-11-15T19:20:27.533Z,-23517.63
2022-11-15T19:22:30.187Z,-23517.63
2022-11-15T19:24:34.077Z,-23518.88
2022-11-15T19:26:37.881Z,-23522.03
2022-11-15T19:28:41.181Z,-23525.84
2022-11-15T19:30:43.908Z,-23528.06
2022-11-15T19:32:47.883Z,-23524.25
2022-11-15T19:34:50.538Z,-23522.69
2022-11-15T19:36:53.141Z,-23524.72
2022-11-15T19:38:56.480Z,-23523.31
2022-11-15T19:41:00.415Z,-23524.25
2022-11-15T19:43:03.095Z,-23526.63
2022-11-15T19:45:06.179Z,-23525.22
2022-11-15T19:47:09.318Z,-23524.91
2022-11-15T19:49:13.418Z,-23523.94
2022-11-15T19:51:19.636Z,-23523.78
2022-11-15T19:53:24.320Z,-23523.00
2022-11-15T19:55:29.310Z,-23526.16
2022-11-15T19:57:32.020Z,-23526.63
2022-11-15T19:59:34.667Z,-23525.53
2022-11-15T20:01:39.242Z,-23524.25
2022-11-15T20:03:42.173Z,-23519.34
2022-11-15T20:05:46.326Z,-23521.88
2022-11-15T20:07:49.116Z,-23519.50
2022-11-15T20:09:52.223Z,-23518.56
2022-11-15T20:11:54.923Z,-23518.25
2022-11-15T20:13:58.554Z,-23517.63
2022-11-15T20:16:01.274Z,-23517.63
2022-11-15T20:18:04.219Z,-23523.63
2022-11-15T20:20:08.171Z,-23520.78
2022-11-15T20:22:12.166Z,-23523.94
2022-11-15T20:24:14.830Z,-23523.00
2022-11-15T20:26:17.460Z,-23514.44
2022-11-15T20:28:23.861Z,-23514.44
2022-11-15T20:30:26.591Z,-23515.72
2022-11-15T20:32:29.230Z,-23514.75
2022-11-15T20:34:31.836Z,-23515.41
2022-11-15T20:36:34.515Z,-23514.75
2022-11-15T20:38:38.882Z,-23513.19
2022-11-15T20:40:41.785Z,-23511.13
2022-11-15T20:42:44.412Z,-23510.00
2022-11-15T20:44:47.072Z,-23513.19
2022-11-15T20:46:49.709Z,-23511.59
2022-11-15T20:48:52.446Z,-23511.13
2022-11-15T20:51:06.963Z,-23509.38
2022-11-15T20:53:09.984Z,-23509.69
2022-11-15T20:55:13.969Z,-23509.84
2022-11-15T20:57:16.636Z,-23508.75
2022-11-15T20:59:19.571Z,-23506.22
2022-11-15T21:01:23.728Z,-23508.44
2022-11-15T21:03:26.701Z,-23506.84
2022-11-15T21:05:29.944Z,-23506.06
2022-11-15T21:07:32.725Z,-23507.31
2022-11-15T21:09:52.951Z,-23508.09
2022-11-15T21:12:11.084Z,-23507.94
2022-11-15T21:14:13.772Z,-23507.78
2022-11-15T21:16:17.568Z,-23507.78
2022-11-15T21:18:20.165Z,-23504.78
2022-11-15T21:20:22.749Z,-23503.03
2022-11-15T21:22:25.431Z,-23504.94
2022-11-15T21:24:28.395Z,-23501.47
2022-11-15T21:26:31.197Z,-23500.66
2022-11-15T21:28:35.833Z,-23498.94
2022-11-15T21:30:38.670Z,-23501.13
2022-11-15T21:32:41.475Z,-23502.41
2022-11-15T21:34:44.524Z,-23503.03
2022-11-15T21:36:47.690Z,-23500.19
2022-11-15T21:38:50.548Z,-23504.47
2022-11-15T21:40:54.388Z,-23512.53
2022-11-15T21:42:57.014Z,-23506.22
2022-11-15T21:45:01.188Z,-23508.75
2022-11-15T21:47:04.183Z,-23507.16
2022-11-15T21:49:07.390Z,-23505.91
2022-11-15T21:51:13.746Z,-23502.88
2022-11-15T21:53:19.896Z,-23503.84
2022-11-15T21:55:22.724Z,-23503.03
2022-11-15T21:57:25.339Z,-23507.78
2022-11-15T21:59:27.978Z,-23510.50
2022-11-15T22:01:49.583Z,-23515.06
2022-11-15T22:03:52.742Z,-23508.44
2022-11-15T22:05:55.615Z,-23507.47
2022-11-15T22:07:58.263Z,-23507.16
2022-11-15T22:10:00.935Z,-23506.38
2022-11-15T22:12:03.527Z,-23502.72
2022-11-15T22:14:06.275Z,-23503.34
2022-11-15T22:16:09.985Z,-23504.63
2022-11-15T22:18:14.940Z,-23503.84
2022-11-15T22:20:42.926Z,-23504.31
2022-11-15T22:22:40.795Z,-23506.06
2022-11-15T22:24:43.518Z,-23500.66
2022-11-15T22:26:46.292Z,-23501.47
2022-11-15T22:28:49.067Z,-23499.56
2022-11-15T22:30:54.375Z,-23501.28
2022-11-15T22:32:57.100Z,-23500.19
2022-11-15T22:35:01.487Z,-23500.50
2022-11-15T22:37:20.057Z,-23498.44
2022-11-15T22:39:24.105Z,-23500.19
2022-11-15T22:41:26.965Z,-23501.28
2022-11-15T22:43:29.950Z,-23500.50
2022-11-15T22:45:33.090Z,-23497.50
2022-11-15T22:47:36.050Z,-23491.63
2022-11-15T22:49:38.859Z,-23491.47
2022-11-15T22:51:43.134Z,-23494.97
2022-11-15T22:53:45.933Z,-23491.63
2022-11-15T22:55:52.725Z,-23491.31
2022-11-15T22:57:55.475Z,-23487.50
2022-11-15T22:59:58.367Z,-23486.09
2022-11-15T23:02:01.175Z,-23487.34
2022-11-15T23:04:04.210Z,-23487.66
2022-11-15T23:06:08.408Z,-23491.31
2022-11-15T23:08:12.619Z,-23486.56
2022-11-15T23:10:33.516Z,-23487.84
2022-11-15T23:12:53.718Z,-23485.91
2022-11-15T23:14:56.572Z,-23488.47
2022-11-15T23:17:00.649Z,-23489.72
2022-11-15T23:19:06.344Z,-23485.91
2022-11-15T23:21:10.386Z,-23485.59
2022-11-15T23:23:13.872Z,-23486.41
2022-11-15T23:25:16.833Z,-23484.34
2022-11-15T23:27:20.823Z,-23481.81
2022-11-15T23:29:25.175Z,-23485.75
2022-11-15T23:31:45.817Z,-23484.03
2022-11-15T23:33:59.777Z,-23483.38
2022-11-15T23:36:02.539Z,-23481.66
2022-11-15T23:38:05.503Z,-23479.59
2022-11-15T23:40:11.849Z,-23479.91
2022-11-15T23:42:20.136Z,-23479.25
2022-11-15T23:44:23.450Z,-23482.13
2022-11-15T23:46:26.599Z,-23479.09
2022-11-15T23:48:29.801Z,-23480.38
2022-11-15T23:50:34.240Z,-23479.91
2022-11-15T23:52:37.094Z,-23479.25
2022-11-15T23:54:39.974Z,-23482.44
2022-11-15T23:56:44.120Z,-23481.16
2022-11-15T23:58:47.356Z,-23479.25
